createdAt,value
2023-02-24T00:01:18.891Z,135.03
2023-02-24T00:03:45.582Z,161.27
2023-02-24T00:06:12.216Z,138.30
2023-02-24T00:08:39.918Z,137.67
2023-02-24T00:11:14.397Z,121.80
2023-02-24T00:13:46.372Z,129.90
2023-02-24T00:16:17.704Z,139.67
2023-02-24T00:18:45.366Z,123.57
2023-02-24T00:21:14.987Z,121.60
2023-02-24T00:23:48.308Z,124.13
2023-02-24T00:26:16.135Z,134.10
2023-02-24T00:28:44.350Z,126.87
2023-02-24T00:31:16.780Z,128.60
2023-02-24T00:33:45.126Z,126.33
2023-02-24T00:36:24.045Z,132.93
2023-02-24T00:38:57.244Z,151.83
2023-02-24T00:41:32.182Z,159.93
2023-02-24T00:44:06.089Z,156.90
2023-02-24T00:46:44.749Z,162.83
2023-02-24T00:49:17.106Z,162.37
2023-02-24T00:51:48.851Z,148.13
2023-02-24T00:54:17.013Z,163.20
2023-02-24T00:56:45.997Z,157.50
2023-02-24T00:59:14.642Z,140.90
2023-02-24T01:01:42.814Z,148.23
2023-02-24T01:04:13.316Z,155.73
2023-02-24T01:06:45.696Z,128.03
2023-02-24T01:09:15.670Z,128.63
2023-02-24T01:12:22.711Z,131.53
2023-02-24T01:14:51.445Z,128.23
2023-02-24T01:17:19.207Z,121.20
2023-02-24T01:19:47.308Z,135.03
2023-02-24T01:22:15.042Z,136.57
2023-02-24T01:24:43.352Z,135.73
2023-02-24T01:27:12.587Z,149.87
2023-02-24T01:29:39.735Z,136.33
2023-02-24T01:32:16.953Z,121.93
2023-02-24T01:34:43.866Z,128.27
2023-02-24T01:37:10.376Z,109.77
2023-02-24T01:39:37.253Z,119.07
2023-02-24T01:42:04.911Z,109.97
2023-02-24T01:44:32.730Z,106.67
2023-02-24T01:47:03.689Z,111.80
2023-02-24T01:49:38.212Z,110.20
2023-02-24T01:52:08.415Z,103.80
2023-02-24T01:54:52.016Z,108.77
2023-02-24T01:57:19.947Z,112.83
2023-02-24T01:59:48.552Z,108.33
2023-02-24T02:02:15.601Z,108.80
2023-02-24T02:04:53.800Z,94.60
2023-02-24T02:07:23.654Z,87.30
2023-02-24T02:09:50.968Z,85.07
2023-02-24T02:12:17.699Z,91.70
2023-02-24T02:14:52.297Z,78.87
2023-02-24T02:17:51.268Z,81.93
2023-02-24T02:20:56.866Z,79.00
2023-02-24T02:23:58.033Z,77.13
2023-02-24T02:26:42.129Z,75.23
2023-02-24T02:29:11.758Z,79.77
2023-02-24T02:31:41.170Z,79.97
2023-02-24T02:34:35.151Z,69.97
2023-02-24T02:37:05.842Z,72.20
2023-02-24T02:40:21.135Z,74.67
2023-02-24T02:43:03.065Z,68.83
2023-02-24T02:45:35.411Z,64.10
2023-02-24T02:48:13.087Z,64.10
2023-02-24T02:50:45.922Z,66.27
2023-02-24T02:53:18.430Z,63.60
2023-02-24T02:55:49.389Z,72.53
2023-02-24T02:58:26.213Z,65.70
2023-02-24T03:01:02.534Z,53.40
2023-02-24T03:03:33.134Z,51.30
2023-02-24T03:06:04.005Z,41.37
2023-02-24T03:08:34.390Z,42.90
2023-02-24T03:11:01.962Z,38.80
2023-02-24T03:13:31.496Z,43.43
2023-02-24T03:16:08.841Z,40.00
2023-02-24T03:18:39.211Z,39.97
2023-02-24T03:21:13.209Z,42.13
2023-02-24T03:23:48.114Z,43.63
2023-02-24T03:26:41.381Z,46.40
2023-02-24T03:29:19.030Z,39.13
2023-02-24T03:31:52.056Z,52.97
2023-02-24T03:34:24.129Z,49.10
2023-02-24T03:36:50.617Z,52.80
2023-02-24T03:39:17.337Z,49.03
2023-02-24T03:41:57.752Z,54.63
2023-02-24T03:44:24.924Z,52.57
2023-02-24T03:46:55.858Z,61.93
2023-02-24T03:49:25.210Z,54.10
2023-02-24T03:52:00.909Z,54.33
2023-02-24T03:54:35.009Z,53.40
2023-02-24T03:57:55.001Z,61.83
2023-02-24T04:00:38.506Z,39.53
2023-02-24T04:03:13.381Z,44.90
2023-02-24T04:05:47.545Z,48.10
2023-02-24T04:08:15.783Z,49.20
2023-02-24T04:10:52.622Z,46.33
2023-02-24T04:13:52.897Z,52.40
2023-02-24T04:16:29.783Z,54.33
2023-02-24T04:18:59.978Z,47.97
2023-02-24T04:21:28.657Z,49.27
2023-02-24T04:23:55.896Z,42.13
2023-02-24T04:26:24.901Z,53.07
2023-02-24T04:28:52.590Z,50.20
2023-02-24T04:31:21.025Z,48.90
2023-02-24T04:33:50.293Z,45.77
2023-02-24T04:36:21.926Z,59.60
2023-02-24T04:38:48.697Z,58.93
2023-02-24T04:41:21.487Z,54.63
2023-02-24T04:43:50.715Z,65.97
2023-02-24T04:46:19.255Z,68.13
2023-02-24T04:48:46.026Z,59.40
2023-02-24T04:51:13.590Z,59.40
2023-02-24T04:53:40.674Z,70.20
2023-02-24T04:56:08.994Z,60.33
2023-02-24T04:58:38.027Z,63.83
2023-02-24T05:01:11.025Z,64.93
2023-02-24T05:03:38.604Z,66.70
2023-02-24T05:06:06.369Z,60.07
2023-02-24T05:08:33.068Z,61.97
2023-02-24T05:11:03.870Z,61.80
2023-02-24T05:13:32.012Z,74.77
2023-02-24T05:16:04.214Z,374.83
2023-02-24T05:18:36.930Z,76.20
2023-02-24T05:21:27.646Z,73.87
2023-02-24T05:23:54.883Z,51.33
2023-02-24T05:26:25.525Z,42.93
2023-02-24T05:28:54.382Z,43.40
2023-02-24T05:31:26.537Z,31.97
2023-02-24T05:33:57.880Z,29.63
2023-02-24T05:36:26.082Z,32.53
2023-02-24T05:38:57.836Z,33.30
2023-02-24T05:41:32.477Z,36.27
2023-02-24T05:44:02.334Z,36.67
2023-02-24T05:46:32.527Z,31.87
2023-02-24T05:49:08.952Z,34.47
2023-02-24T05:51:39.099Z,30.80
2023-02-24T05:54:13.708Z,29.33
2023-02-24T05:56:44.463Z,30.37
2023-02-24T05:59:12.422Z,34.37
2023-02-24T06:01:45.786Z,34.53
2023-02-24T06:04:20.793Z,21.53
2023-02-24T06:06:52.588Z,19.47
2023-02-24T06:09:23.050Z,14.53
2023-02-24T06:11:50.181Z,14.80
2023-02-24T06:14:17.130Z,16.30
2023-02-24T06:16:43.589Z,13.00
2023-02-24T06:19:12.303Z,13.50
2023-02-24T06:21:43.816Z,14.23
2023-02-24T06:24:14.833Z,15.77
2023-02-24T06:26:45.242Z,20.50
2023-02-24T06:29:14.450Z,16.13
2023-02-24T06:31:41.899Z,14.13
2023-02-24T06:34:13.884Z,14.50
2023-02-24T06:36:40.803Z,18.73
2023-02-24T06:39:08.149Z,17.57
2023-02-24T06:41:35.564Z,20.37
2023-02-24T06:44:02.035Z,21.07
2023-02-24T06:46:28.873Z,24.03
2023-02-24T06:48:56.387Z,21.10
2023-02-24T06:51:24.069Z,18.67
2023-02-24T06:53:52.198Z,19.90
2023-02-24T06:56:19.888Z,27.33
2023-02-24T06:58:55.379Z,24.00
2023-02-24T07:01:28.984Z,17.43
2023-02-24T07:04:17.500Z,16.77
2023-02-24T07:06:55.267Z,17.07
2023-02-24T07:09:24.657Z,22.80
2023-02-24T07:11:52.839Z,21.53
2023-02-24T07:14:21.720Z,16.70
2023-02-24T07:16:53.997Z,19.93
2023-02-24T07:19:24.095Z,21.67
2023-02-24T07:21:52.630Z,18.23
2023-02-24T07:24:32.910Z,26.07
2023-02-24T07:27:02.474Z,22.87
2023-02-24T07:29:30.559Z,25.00
2023-02-24T07:32:05.588Z,17.93
2023-02-24T07:34:33.766Z,29.20
2023-02-24T07:37:06.530Z,20.07
2023-02-24T07:39:33.710Z,22.60
2023-02-24T07:42:00.341Z,22.97
2023-02-24T07:44:29.300Z,23.47
2023-02-24T07:46:56.923Z,23.93
2023-02-24T07:49:29.946Z,22.40
2023-02-24T07:51:58.009Z,20.03
2023-02-24T07:54:29.864Z,22.50
2023-02-24T07:56:58.899Z,22.70
2023-02-24T07:59:28.202Z,22.67
2023-02-24T08:01:56.110Z,19.60
2023-02-24T08:04:28.486Z,26.00
2023-02-24T08:06:56.134Z,23.63
2023-02-24T08:09:43.948Z,30.03
2023-02-24T08:12:17.926Z,24.97
2023-02-24T08:14:52.346Z,20.63
2023-02-24T08:17:23.932Z,24.30
2023-02-24T08:20:00.924Z,23.30
2023-02-24T08:22:35.330Z,20.93
2023-02-24T08:25:05.846Z,25.93
2023-02-24T08:27:38.753Z,23.97
2023-02-24T08:30:07.428Z,24.37
2023-02-24T08:32:43.503Z,20.97
2023-02-24T08:35:15.597Z,28.10
2023-02-24T08:37:47.353Z,30.27
2023-02-24T08:40:33.986Z,20.10
2023-02-24T08:43:17.355Z,22.87
2023-02-24T08:45:59.383Z,31.27
2023-02-24T08:48:37.641Z,30.13
2023-02-24T08:51:10.146Z,25.40
2023-02-24T08:53:40.436Z,23.37
2023-02-24T08:56:11.284Z,17.17
2023-02-24T08:58:48.388Z,20.23
2023-02-24T09:01:19.999Z,21.60
2023-02-24T09:03:48.384Z,27.57
2023-02-24T09:06:17.879Z,31.83
2023-02-24T09:08:45.619Z,26.23
2023-02-24T09:11:15.135Z,18.00
2023-02-24T09:13:51.618Z,15.10
2023-02-24T09:16:19.775Z,27.37
2023-02-24T09:19:06.499Z,19.97
2023-02-24T09:21:48.024Z,21.80
2023-02-24T09:24:16.897Z,17.00
2023-02-24T09:26:43.583Z,21.63
2023-02-24T09:29:30.021Z,22.43
2023-02-24T09:32:04.527Z,20.70
2023-02-24T09:34:36.463Z,17.67
2023-02-24T09:37:04.604Z,22.03
2023-02-24T09:39:54.661Z,22.63
2023-02-24T09:42:23.684Z,19.97
2023-02-24T09:44:55.565Z,23.73
2023-02-24T09:47:39.446Z,21.60
2023-02-24T09:50:14.084Z,22.93
2023-02-24T09:52:41.341Z,19.97
2023-02-24T09:55:24.849Z,26.43
2023-02-24T09:58:26.977Z,22.60
2023-02-24T10:01:00.732Z,23.47
2023-02-24T10:03:47.952Z,28.60
2023-02-24T10:06:21.534Z,24.07
2023-02-24T10:09:13.611Z,19.20
2023-02-24T10:11:54.881Z,21.80
2023-02-24T10:14:51.140Z,15.17
2023-02-24T10:17:23.814Z,13.67
2023-02-24T10:20:00.160Z,13.67
2023-02-24T10:22:28.551Z,12.20
2023-02-24T10:25:25.912Z,19.87
2023-02-24T10:28:06.196Z,18.07
2023-02-24T10:31:10.205Z,13.40
2023-02-24T10:33:45.069Z,13.67
2023-02-24T10:36:18.287Z,12.60
2023-02-24T10:38:45.598Z,19.67
2023-02-24T10:41:14.521Z,16.83
2023-02-24T10:43:47.408Z,18.00
2023-02-24T10:46:42.784Z,17.23
2023-02-24T10:49:11.764Z,16.93
2023-02-24T10:51:44.678Z,17.00
2023-02-24T10:54:42.551Z,12.90
2023-02-24T10:57:38.291Z,13.73
2023-02-24T11:00:31.043Z,18.83
2023-02-24T11:03:08.199Z,15.10
2023-02-24T11:05:44.245Z,15.87
2023-02-24T11:08:15.825Z,17.63
2023-02-24T11:10:53.353Z,19.37
2023-02-24T11:13:39.360Z,17.27
2023-02-24T11:16:27.017Z,14.83
2023-02-24T11:18:54.569Z,17.40
2023-02-24T11:21:24.000Z,14.97
2023-02-24T11:23:57.246Z,14.67
2023-02-24T11:26:27.335Z,17.93
2023-02-24T11:29:23.983Z,14.93
2023-02-24T11:32:16.944Z,15.23
2023-02-24T11:34:58.185Z,12.83
2023-02-24T11:37:34.670Z,13.73
2023-02-24T11:40:09.467Z,13.27
2023-02-24T11:42:56.102Z,10.87
2023-02-24T11:45:31.826Z,13.33
2023-02-24T11:48:19.951Z,14.13
2023-02-24T11:51:05.922Z,8.93
2023-02-24T11:53:42.449Z,10.37
2023-02-24T11:56:29.458Z,11.50
2023-02-24T11:59:19.410Z,10.10
2023-02-24T12:01:52.600Z,10.77
2023-02-24T12:04:35.043Z,11.10
2023-02-24T12:07:08.279Z,10.37
2023-02-24T12:09:47.868Z,11.30
2023-02-24T12:12:21.157Z,12.47
2023-02-24T12:14:54.325Z,11.10
2023-02-24T12:17:29.873Z,14.10
2023-02-24T12:20:06.146Z,11.43
2023-02-24T12:22:56.802Z,14.13
2023-02-24T12:25:35.788Z,14.03
2023-02-24T12:28:18.315Z,15.90
2023-02-24T12:31:05.159Z,17.03
2023-02-24T12:33:43.948Z,13.07
2023-02-24T12:36:29.239Z,14.13
2023-02-24T12:39:09.447Z,11.97
2023-02-24T12:42:02.771Z,12.67
2023-02-24T12:44:47.792Z,16.10
2023-02-24T12:47:17.546Z,17.77
2023-02-24T12:50:06.894Z,18.40
2023-02-24T12:53:21.729Z,17.63
2023-02-24T12:56:06.220Z,15.77
2023-02-24T12:58:36.473Z,12.33
2023-02-24T13:01:15.096Z,12.80
2023-02-24T13:03:53.868Z,14.50
2023-02-24T13:06:30.602Z,17.00
2023-02-24T13:09:03.204Z,16.00
2023-02-24T13:11:38.918Z,15.10
2023-02-24T13:14:21.407Z,13.77
2023-02-24T13:16:48.143Z,13.50
2023-02-24T13:19:20.897Z,14.40
2023-02-24T13:22:27.340Z,17.50
2023-02-24T13:25:09.034Z,15.30
2023-02-24T13:27:38.825Z,13.83
2023-02-24T13:30:12.010Z,14.53
2023-02-24T13:32:47.471Z,13.77
2023-02-24T13:35:13.956Z,16.57
2023-02-24T13:37:42.393Z,14.97
2023-02-24T13:40:16.479Z,16.10
2023-02-24T13:43:04.769Z,16.43
2023-02-24T13:45:36.231Z,18.03
2023-02-24T13:48:14.811Z,15.00
2023-02-24T13:51:10.184Z,18.03
2023-02-24T13:53:57.702Z,17.63
2023-02-24T13:56:38.777Z,17.83
2023-02-24T13:59:53.228Z,13.43
2023-02-24T14:02:27.439Z,17.63
2023-02-24T14:04:58.683Z,17.10
2023-02-24T14:07:30.996Z,14.63
2023-02-24T14:10:06.383Z,20.03
2023-02-24T14:12:35.233Z,19.77
2023-02-24T14:15:03.515Z,23.43
2023-02-24T14:17:31.339Z,22.00
2023-02-24T14:20:09.881Z,20.40
2023-02-24T14:23:03.867Z,22.03
2023-02-24T14:25:36.586Z,24.67
2023-02-24T14:28:03.145Z,21.57
2023-02-24T14:30:38.672Z,18.67
2023-02-24T14:33:07.327Z,26.17
2023-02-24T14:35:46.490Z,20.73
2023-02-24T14:38:32.713Z,21.83
2023-02-24T14:40:59.325Z,24.87
2023-02-24T14:43:26.525Z,19.53
2023-02-24T14:45:54.018Z,21.43
2023-02-24T14:48:31.024Z,19.90
2023-02-24T14:51:09.491Z,19.57
2023-02-24T14:53:39.680Z,21.47
2023-02-24T14:56:06.696Z,20.40
2023-02-24T14:58:35.633Z,17.77
2023-02-24T15:01:24.035Z,20.87
2023-02-24T15:03:54.108Z,17.87
2023-02-24T15:06:31.415Z,16.40
2023-02-24T15:09:01.643Z,16.27
2023-02-24T15:11:30.621Z,16.03
2023-02-24T15:14:00.735Z,18.57
2023-02-24T15:16:36.310Z,16.40
2023-02-24T15:19:03.308Z,16.83
2023-02-24T15:21:31.260Z,14.63
2023-02-24T15:24:02.957Z,15.67
2023-02-24T15:26:32.731Z,15.63
2023-02-24T15:29:01.958Z,11.80
2023-02-24T15:31:29.448Z,16.17
2023-02-24T15:33:59.991Z,17.17
2023-02-24T15:36:36.174Z,16.50
2023-02-24T15:39:10.272Z,13.73
2023-02-24T15:41:43.181Z,15.37
2023-02-24T15:44:33.653Z,11.97
2023-02-24T15:47:02.035Z,14.90
2023-02-24T15:49:28.562Z,14.83
2023-02-24T15:51:55.705Z,11.73
2023-02-24T15:54:29.697Z,17.43
2023-02-24T15:57:00.766Z,11.33
2023-02-24T15:59:28.045Z,10.37
2023-02-24T16:01:54.654Z,10.87
2023-02-24T16:04:22.454Z,10.23
2023-02-24T16:06:54.958Z,10.60
2023-02-24T16:09:40.202Z,11.13
2023-02-24T16:12:15.865Z,10.90
2023-02-24T16:14:43.497Z,11.00
2023-02-24T16:17:40.182Z,17.30
2023-02-24T16:20:27.850Z,15.70
2023-02-24T16:22:56.428Z,26.53
2023-02-24T16:25:23.291Z,65.77
2023-02-24T16:27:50.167Z,17.57
2023-02-24T16:30:20.817Z,14.27
2023-02-24T16:32:49.083Z,16.40
2023-02-24T16:35:15.911Z,21.37
2023-02-24T16:37:46.221Z,22.20
2023-02-24T16:40:30.943Z,19.60
2023-02-24T16:42:57.789Z,21.57
2023-02-24T16:45:28.906Z,19.87
2023-02-24T16:47:57.063Z,18.20
2023-02-24T16:50:33.152Z,22.40
2023-02-24T16:53:00.207Z,18.97
2023-02-24T16:55:26.869Z,19.10
2023-02-24T16:57:53.544Z,22.87
2023-02-24T17:00:24.353Z,20.10
2023-02-24T17:02:51.979Z,17.80
2023-02-24T17:05:24.210Z,21.33
2023-02-24T17:07:53.313Z,18.63
2023-02-24T17:10:20.582Z,19.30
2023-02-24T17:12:47.387Z,17.33
2023-02-24T17:15:17.236Z,18.00
2023-02-24T17:17:43.802Z,17.53
2023-02-24T17:20:15.768Z,18.63
2023-02-24T17:22:43.226Z,19.77
2023-02-24T17:25:15.569Z,18.93
2023-02-24T17:27:42.255Z,17.23
2023-02-24T17:30:13.340Z,17.20
2023-02-24T17:32:39.835Z,17.10
2023-02-24T17:35:06.836Z,18.47
2023-02-24T17:37:33.454Z,15.33
2023-02-24T17:40:00.035Z,20.33
2023-02-24T17:42:26.776Z,14.53
2023-02-24T17:44:53.337Z,14.03
2023-02-24T17:47:19.844Z,14.67
2023-02-24T17:49:46.624Z,15.50
2023-02-24T17:52:13.494Z,15.10
2023-02-24T17:54:40.966Z,19.60
2023-02-24T17:57:09.024Z,17.50
2023-02-24T17:59:36.506Z,23.10
2023-02-24T18:02:03.679Z,17.53
2023-02-24T18:04:30.861Z,23.07
2023-02-24T18:06:57.377Z,20.80
2023-02-24T18:09:23.884Z,21.13
2023-02-24T18:11:50.484Z,20.83
2023-02-24T18:14:16.946Z,21.30
2023-02-24T18:16:43.800Z,22.37
2023-02-24T18:19:10.206Z,21.97
2023-02-24T18:21:36.676Z,16.60
2023-02-24T18:24:03.442Z,15.17
2023-02-24T18:26:30.200Z,15.83
2023-02-24T18:28:58.263Z,14.50
2023-02-24T18:31:26.660Z,12.87
2023-02-24T18:33:54.063Z,14.93
2023-02-24T18:36:21.288Z,15.70
2023-02-24T18:38:48.174Z,16.27
2023-02-24T18:41:20.934Z,14.47
2023-02-24T18:43:48.947Z,14.47
2023-02-24T18:46:16.135Z,14.37
2023-02-24T18:48:46.823Z,11.70
2023-02-24T18:51:17.080Z,12.77
2023-02-24T18:53:43.666Z,11.40
2023-02-24T18:56:13.508Z,11.87
2023-02-24T18:58:40.789Z,13.00
2023-02-24T19:01:13.072Z,11.17
2023-02-24T19:03:40.436Z,10.50
2023-02-24T19:06:07.716Z,11.83
2023-02-24T19:08:34.145Z,10.20
2023-02-24T19:11:07.491Z,8.90
2023-02-24T19:13:33.988Z,8.50
2023-02-24T19:16:00.601Z,10.33
2023-02-24T19:18:27.176Z,11.63
2023-02-24T19:20:54.480Z,10.60
2023-02-24T19:23:21.451Z,13.93
2023-02-24T19:25:47.987Z,14.27
2023-02-24T19:28:14.414Z,45.03
2023-02-24T19:30:41.302Z,17.20
2023-02-24T19:33:07.881Z,14.83
2023-02-24T19:35:34.557Z,10.57
2023-02-24T19:38:01.284Z,11.57
2023-02-24T19:40:27.868Z,18.70
2023-02-24T19:42:54.365Z,12.20
2023-02-24T19:45:21.473Z,7.83
2023-02-24T19:47:47.983Z,8.70
2023-02-24T19:50:16.862Z,7.43
2023-02-24T19:52:43.481Z,11.00
2023-02-24T19:55:11.568Z,13.90
2023-02-24T19:57:38.145Z,11.33
2023-02-24T20:00:06.147Z,9.47
2023-02-24T20:02:32.707Z,9.13
2023-02-24T20:04:59.537Z,9.30
2023-02-24T20:07:26.419Z,14.50
2023-02-24T20:09:54.759Z,12.53
2023-02-24T20:12:21.312Z,12.07
2023-02-24T20:14:47.830Z,12.73
2023-02-24T20:17:14.321Z,17.47
2023-02-24T20:19:40.829Z,17.33
2023-02-24T20:22:07.459Z,18.77
2023-02-24T20:24:35.077Z,19.27
2023-02-24T20:27:04.667Z,20.07
2023-02-24T20:29:36.000Z,22.17
2023-02-24T20:32:03.227Z,22.23
2023-02-24T20:34:29.916Z,21.57
2023-02-24T20:36:56.485Z,20.53
2023-02-24T20:39:24.818Z,21.50
2023-02-24T20:41:53.596Z,24.07
2023-02-24T20:44:20.768Z,25.20
2023-02-24T20:46:47.488Z,22.27
2023-02-24T20:49:16.806Z,23.10
2023-02-24T20:51:43.730Z,24.27
2023-02-24T20:54:11.731Z,23.60
2023-02-24T20:56:39.944Z,23.47
2023-02-24T20:59:07.714Z,22.03
2023-02-24T21:01:35.176Z,25.27
2023-02-24T21:04:02.326Z,24.77
2023-02-24T21:06:29.243Z,25.80
2023-02-24T21:08:58.983Z,29.17
2023-02-24T21:11:26.749Z,26.73
2023-02-24T21:13:53.620Z,28.57
2023-02-24T21:16:21.019Z,27.57
2023-02-24T21:18:48.959Z,31.13
2023-02-24T21:21:15.914Z,25.50
2023-02-24T21:23:43.164Z,27.10
2023-02-24T21:26:10.462Z,25.50
2023-02-24T21:28:37.636Z,28.17
2023-02-24T21:31:09.780Z,25.57
2023-02-24T21:33:36.905Z,26.50
2023-02-24T21:36:10.565Z,29.07
2023-02-24T21:38:37.930Z,27.50
2023-02-24T21:41:08.572Z,25.17
2023-02-24T21:43:35.418Z,29.30
2023-02-24T21:46:05.407Z,26.23
2023-02-24T21:48:35.558Z,24.40
2023-02-24T21:51:04.418Z,26.53
2023-02-24T21:53:35.360Z,28.00
2023-02-24T21:56:23.653Z,24.87
2023-02-24T21:58:56.417Z,26.53
2023-02-24T22:01:34.212Z,25.80
2023-02-24T22:04:03.165Z,24.77
2023-02-24T22:06:31.899Z,28.77
2023-02-24T22:08:59.843Z,25.07
2023-02-24T22:11:26.391Z,27.27
2023-02-24T22:13:52.859Z,28.27
2023-02-24T22:16:24.602Z,27.70
2023-02-24T22:18:52.812Z,24.43
2023-02-24T22:21:21.989Z,33.43
2023-02-24T22:23:50.540Z,26.80
2023-02-24T22:26:17.660Z,25.17
2023-02-24T22:28:46.671Z,26.60
2023-02-24T22:31:15.423Z,26.97
2023-02-24T22:33:43.245Z,27.97
2023-02-24T22:36:10.828Z,23.40
2023-02-24T22:38:38.676Z,24.93
2023-02-24T22:41:11.413Z,25.57
2023-02-24T22:43:37.950Z,27.83
2023-02-24T22:46:06.574Z,29.57
2023-02-24T22:48:35.930Z,26.83
2023-02-24T22:51:04.336Z,30.80
2023-02-24T22:53:33.127Z,31.17
2023-02-24T22:56:00.160Z,24.53
2023-02-24T22:58:26.663Z,31.33
2023-02-24T23:00:54.525Z,29.60
2023-02-24T23:03:23.489Z,29.27
2023-02-24T23:06:04.527Z,28.97
2023-02-24T23:08:33.632Z,31.40
2023-02-24T23:11:12.402Z,29.63
2023-02-24T23:13:40.297Z,30.43
2023-02-24T23:16:09.804Z,32.43
2023-02-24T23:18:37.206Z,32.80
2023-02-24T23:21:06.897Z,29.53
2023-02-24T23:23:33.775Z,30.10
2023-02-24T23:26:00.821Z,29.20
2023-02-24T23:28:27.836Z,27.00
2023-02-24T23:30:55.442Z,22.37
2023-02-24T23:33:22.734Z,24.33
2023-02-24T23:35:49.870Z,27.23
2023-02-24T23:38:16.713Z,25.10
2023-02-24T23:40:49.956Z,25.67
2023-02-24T23:43:17.353Z,24.77
2023-02-24T23:45:44.369Z,24.97
2023-02-24T23:48:13.071Z,25.10
2023-02-24T23:50:41.789Z,23.93
2023-02-24T23:53:08.949Z,25.10
2023-02-24T23:55:35.871Z,20.67
2023-02-24T23:58:03.470Z,25.53
